createdAt,value
2019-05-09T00:00:53.492Z,94644.59
2019-05-09T00:03:24.140Z,94635.82
2019-05-09T00:05:54.275Z,94630.99
2019-05-09T00:08:23.834Z,94631.09
2019-05-09T00:10:53.598Z,94631.59
2019-05-09T00:13:23.740Z,94632.34
2019-05-09T00:15:54.162Z,94638.40
2019-05-09T00:18:23.882Z,94628.25
2019-05-09T00:21:09.002Z,94635.89
2019-05-09T00:23:38.510Z,94639.21
2019-05-09T00:26:07.981Z,94639.45
2019-05-09T00:28:39.643Z,94639.49
2019-05-09T00:31:15.826Z,94642.31
2019-05-09T00:33:49.798Z,94641.36
2019-05-09T00:36:19.329Z,94638.75
2019-05-09T00:38:48.819Z,94639.42
2019-05-09T00:41:18.351Z,94634.07
2019-05-09T00:43:54.401Z,94636.36
2019-05-09T00:46:30.241Z,94632.91
2019-05-09T00:49:16.336Z,94631.11
2019-05-09T00:51:45.804Z,94631.84
2019-05-09T00:54:15.280Z,94625.30
2019-05-09T00:56:44.747Z,94631.42
2019-05-09T00:59:14.338Z,94622.45
2019-05-09T01:01:43.847Z,94626.73
2019-05-09T01:04:13.797Z,94623.18
2019-05-09T01:06:43.533Z,94624.23
2019-05-09T01:09:13.757Z,94621.59
2019-05-09T01:11:44.097Z,94617.09
2019-05-09T01:14:14.292Z,94612.90
2019-05-09T01:16:44.131Z,94611.95
2019-05-09T01:19:14.234Z,94614.38
2019-05-09T01:21:44.005Z,94617.83
2019-05-09T01:24:14.023Z,94620.50
2019-05-09T01:26:43.716Z,94606.77
2019-05-09T01:29:13.916Z,94607.33
2019-05-09T01:31:43.739Z,94608.98
2019-05-09T01:34:20.501Z,94602.65
2019-05-09T01:37:10.249Z,94612.15
2019-05-09T01:39:39.730Z,94606.83
2019-05-09T01:42:09.302Z,94612.73
2019-05-09T01:44:38.800Z,94608.62
2019-05-09T01:47:08.296Z,94601.27
2019-05-09T01:49:37.742Z,94602.39
2019-05-09T01:52:07.248Z,94598.48
2019-05-09T01:54:38.610Z,94598.91
2019-05-09T01:57:08.089Z,94600.14
2019-05-09T01:59:37.547Z,94602.98
2019-05-09T02:02:08.797Z,94606.08
2019-05-09T02:04:38.615Z,94601.83
2019-05-09T02:07:08.066Z,94602.11
2019-05-09T02:09:37.554Z,94603.16
2019-05-09T02:12:07.022Z,94602.59
2019-05-09T02:14:43.809Z,94599.50
2019-05-09T02:17:38.358Z,94605.03
2019-05-09T02:20:08.436Z,94602.08
2019-05-09T02:22:37.905Z,94603.38
2019-05-09T02:25:08.059Z,94600.81
2019-05-09T02:27:37.495Z,94603.70
2019-05-09T02:30:08.070Z,94598.56
2019-05-09T02:32:37.511Z,94600.64
2019-05-09T02:35:07.895Z,94599.66
2019-05-09T02:37:38.996Z,94601.70
2019-05-09T02:40:10.514Z,94598.92
2019-05-09T02:42:40.311Z,94592.55
2019-05-09T02:45:10.471Z,94599.88
2019-05-09T02:47:40.379Z,94600.54
2019-05-09T02:50:11.249Z,94597.30
2019-05-09T02:52:40.741Z,94600.22
2019-05-09T02:55:10.801Z,94591.03
2019-05-09T02:57:40.586Z,94590.55
2019-05-09T03:00:28.884Z,94590.33
2019-05-09T03:03:20.175Z,94586.10
2019-05-09T03:05:49.843Z,94587.05
2019-05-09T03:08:19.600Z,94586.84
2019-05-09T03:10:49.443Z,94592.51
2019-05-09T03:13:19.412Z,94593.20
2019-05-09T03:15:50.970Z,94585.45
2019-05-09T03:18:20.454Z,94585.77
2019-05-09T03:21:15.280Z,94584.24
2019-05-09T03:23:44.789Z,94586.36
2019-05-09T03:26:19.343Z,94587.27
2019-05-09T03:29:08.835Z,94580.75
2019-05-09T03:31:39.649Z,94583.25
2019-05-09T03:34:09.773Z,94580.70
2019-05-09T03:36:39.418Z,94580.63
2019-05-09T03:39:09.214Z,94576.00
2019-05-09T03:41:39.509Z,94581.77
2019-05-09T03:44:09.114Z,94576.98
2019-05-09T03:46:48.832Z,94586.47
2019-05-09T03:49:18.377Z,94581.89
2019-05-09T03:51:48.242Z,94583.87
2019-05-09T03:54:18.478Z,94581.89
2019-05-09T03:56:53.115Z,94585.48
2019-05-09T03:59:22.590Z,94579.59
2019-05-09T04:01:52.048Z,94583.19
2019-05-09T04:04:21.528Z,94581.52
2019-05-09T04:06:51.018Z,94586.35
2019-05-09T04:09:20.510Z,94583.88
2019-05-09T04:11:49.969Z,94574.75
2019-05-09T04:14:23.373Z,94582.89
2019-05-09T04:16:52.845Z,94572.19
2019-05-09T04:19:22.331Z,94581.50
2019-05-09T04:21:51.793Z,94577.49
2019-05-09T04:24:22.080Z,94572.01
2019-05-09T04:26:57.618Z,94572.23
2019-05-09T04:29:28.552Z,94575.56
2019-05-09T04:31:58.205Z,94563.31
2019-05-09T04:34:27.721Z,94560.07
2019-05-09T04:36:57.746Z,94557.73
2019-05-09T04:39:28.285Z,94553.98
2019-05-09T04:42:03.733Z,94552.61
2019-05-09T04:44:34.724Z,94545.64
2019-05-09T04:47:04.216Z,94541.96
2019-05-09T04:49:39.649Z,94534.92
2019-05-09T04:52:04.929Z,94535.04
2019-05-09T04:54:34.375Z,94535.90
2019-05-09T04:57:03.829Z,94532.59
2019-05-09T04:59:33.322Z,94534.71
2019-05-09T05:02:21.845Z,94535.14
2019-05-09T05:04:51.357Z,94525.25
2019-05-09T05:07:20.832Z,94526.50
2019-05-09T05:09:50.287Z,94525.97
2019-05-09T05:12:19.784Z,94519.92
2019-05-09T05:14:49.255Z,94518.78
2019-05-09T05:17:18.735Z,94521.80
2019-05-09T05:19:49.009Z,94515.10
2019-05-09T05:22:42.788Z,94523.57
2019-05-09T05:25:12.276Z,94516.87
2019-05-09T05:27:41.761Z,94515.84
2019-05-09T05:30:12.089Z,94519.05
2019-05-09T05:32:57.850Z,94513.33
2019-05-09T05:35:34.137Z,94513.48
2019-05-09T05:38:03.654Z,94509.67
2019-05-09T05:40:34.022Z,94513.36
2019-05-09T05:43:03.613Z,94510.39
2019-05-09T05:45:37.608Z,94508.03
2019-05-09T05:48:17.380Z,94509.12
2019-05-09T05:50:48.523Z,94502.58
2019-05-09T05:53:18.269Z,94505.83
2019-05-09T05:55:52.076Z,94503.23
2019-05-09T05:58:20.356Z,94505.95
2019-05-09T06:00:49.873Z,94507.52
2019-05-09T06:03:19.400Z,94510.53
2019-05-09T06:05:51.700Z,94512.94
2019-05-09T06:08:20.071Z,94508.55
2019-05-09T06:10:49.579Z,94506.89
2019-05-09T06:13:19.058Z,94511.62
2019-05-09T06:15:48.570Z,94509.86
2019-05-09T06:18:18.532Z,94503.92
2019-05-09T06:20:48.652Z,94507.11
2019-05-09T06:23:18.327Z,94500.39
2019-05-09T06:25:48.505Z,94498.67
2019-05-09T06:28:18.425Z,94491.42
2019-05-09T06:30:47.934Z,94492.08
2019-05-09T06:33:18.049Z,94490.73
2019-05-09T06:35:48.213Z,94480.74
2019-05-09T06:38:19.001Z,94492.38
2019-05-09T06:40:48.497Z,94483.48
2019-05-09T06:43:24.261Z,94487.66
2019-05-09T06:46:11.722Z,94481.46
2019-05-09T06:48:41.241Z,94479.99
2019-05-09T06:51:10.698Z,94478.27
2019-05-09T06:53:40.228Z,94477.72
2019-05-09T06:56:09.715Z,94475.06
2019-05-09T06:58:39.211Z,94467.50
2019-05-09T07:01:24.754Z,94466.77
2019-05-09T07:03:58.331Z,94463.62
2019-05-09T07:06:32.427Z,94458.70
2019-05-09T07:09:33.294Z,94457.72
2019-05-09T07:12:02.876Z,94454.26
2019-05-09T07:14:37.902Z,94447.19
2019-05-09T07:17:07.923Z,94444.78
2019-05-09T07:19:38.247Z,94445.23
2019-05-09T07:22:39.457Z,94441.94
2019-05-09T07:25:37.864Z,94440.05
2019-05-09T07:28:07.774Z,94438.39
2019-05-09T07:30:48.102Z,94432.94
2019-05-09T07:33:23.790Z,94432.84
2019-05-09T07:35:53.359Z,94430.14
2019-05-09T07:38:29.707Z,94429.34
2019-05-09T07:41:00.124Z,94423.50
2019-05-09T07:43:31.842Z,94426.27
2019-05-09T07:46:05.749Z,94423.08
2019-05-09T07:48:38.062Z,94421.84
2019-05-09T07:51:08.060Z,94413.77
2019-05-09T07:53:38.187Z,94406.02
2019-05-09T07:56:08.194Z,94404.58
2019-05-09T07:58:37.933Z,94404.29
2019-05-09T08:01:08.464Z,94409.59
2019-05-09T08:03:38.711Z,94403.78
2019-05-09T08:06:09.001Z,94398.87
2019-05-09T08:08:38.822Z,94404.50
2019-05-09T08:11:09.193Z,94398.58
2019-05-09T08:13:39.490Z,94394.67
2019-05-09T08:16:14.181Z,94395.83
2019-05-09T08:18:41.955Z,94395.34
2019-05-09T08:21:11.485Z,94387.98
2019-05-09T08:23:40.945Z,94387.98
2019-05-09T08:26:10.486Z,94380.95
2019-05-09T08:28:42.105Z,94379.02
2019-05-09T08:31:11.688Z,94379.81
2019-05-09T08:33:41.236Z,94379.72
2019-05-09T08:36:10.836Z,94374.50
2019-05-09T08:38:40.658Z,94379.14
2019-05-09T08:41:11.352Z,94373.17
2019-05-09T08:43:41.862Z,94371.56
2019-05-09T08:46:12.762Z,94372.33
2019-05-09T08:48:42.348Z,94361.97
2019-05-09T08:51:20.141Z,94360.61
2019-05-09T08:53:49.967Z,94359.16
2019-05-09T08:56:19.510Z,94354.34
2019-05-09T08:58:48.979Z,94352.77
2019-05-09T09:01:30.742Z,94346.80
2019-05-09T09:03:50.160Z,94345.08
2019-05-09T09:06:19.744Z,94348.23
2019-05-09T09:08:49.225Z,94352.87
2019-05-09T09:11:19.122Z,94344.63
2019-05-09T09:13:48.963Z,94346.92
2019-05-09T09:16:22.279Z,94345.35
2019-05-09T09:18:49.707Z,94338.58
2019-05-09T09:21:19.262Z,94342.92
2019-05-09T09:23:50.732Z,94339.96
2019-05-09T09:26:20.000Z,94342.92
2019-05-09T09:28:49.501Z,94333.77
2019-05-09T09:31:19.026Z,94339.69
2019-05-09T09:33:48.505Z,94340.77
2019-05-09T09:36:18.149Z,94336.27
2019-05-09T09:38:48.508Z,94333.02
2019-05-09T09:41:20.584Z,94325.33
2019-05-09T09:43:50.115Z,94329.09
2019-05-09T09:46:19.643Z,94336.34
2019-05-09T09:48:49.197Z,94328.89
2019-05-09T09:51:18.917Z,94328.05
2019-05-09T09:53:49.086Z,94322.94
2019-05-09T09:56:22.283Z,94319.38
2019-05-09T09:58:58.876Z,94316.27
2019-05-09T10:01:30.517Z,94311.85
2019-05-09T10:04:24.036Z,94308.65
2019-05-09T10:06:52.987Z,94304.19
2019-05-09T10:09:20.999Z,94309.14
2019-05-09T10:11:50.573Z,94309.11
2019-05-09T10:14:28.411Z,94304.34
2019-05-09T10:17:17.947Z,94301.10
2019-05-09T10:19:51.979Z,94291.47
2019-05-09T10:22:25.447Z,94293.77
2019-05-09T10:24:54.425Z,94294.23
2019-05-09T10:27:23.953Z,94292.93
2019-05-09T10:29:53.466Z,94289.12
2019-05-09T10:32:23.019Z,94278.85
2019-05-09T10:34:52.566Z,94278.75
2019-05-09T10:37:22.079Z,94277.73
2019-05-09T10:39:51.545Z,94269.11
2019-05-09T10:42:28.705Z,94274.25
2019-05-09T10:45:09.132Z,94269.98
2019-05-09T10:47:38.676Z,94265.70
2019-05-09T10:50:08.735Z,94266.78
2019-05-09T10:52:38.279Z,94268.92
2019-05-09T10:55:09.048Z,94267.77
2019-05-09T10:57:42.417Z,94268.45
2019-05-09T11:00:10.426Z,94269.73
2019-05-09T11:02:40.169Z,94259.62
2019-05-09T11:05:11.219Z,94262.70
2019-05-09T11:07:40.760Z,94264.66
2019-05-09T11:10:24.548Z,94261.23
2019-05-09T11:12:41.591Z,94262.52
2019-05-09T11:15:11.177Z,94264.09
2019-05-09T11:17:42.062Z,94260.91
2019-05-09T11:20:14.539Z,94264.70
2019-05-09T11:22:44.039Z,94264.42
2019-05-09T11:25:13.559Z,94262.06
2019-05-09T11:27:43.073Z,94260.20
2019-05-09T11:30:13.636Z,94262.57
2019-05-09T11:32:43.150Z,94262.81
2019-05-09T11:35:12.660Z,94266.52
2019-05-09T11:37:42.185Z,94268.53
2019-05-09T11:40:12.268Z,94263.17
2019-05-09T11:42:41.742Z,94261.34
2019-05-09T11:45:11.338Z,94263.23
2019-05-09T11:47:46.217Z,94272.78
2019-05-09T11:50:12.281Z,94276.48
2019-05-09T11:52:44.699Z,94277.63
2019-05-09T11:55:28.801Z,94276.48
2019-05-09T11:57:48.346Z,94274.10
2019-05-09T12:00:17.930Z,94277.80
2019-05-09T12:02:49.860Z,94271.78
2019-05-09T12:05:20.220Z,94277.73
2019-05-09T12:07:52.634Z,94271.31
2019-05-09T12:10:22.122Z,94274.12
2019-05-09T12:12:51.617Z,94273.00
2019-05-09T12:15:21.131Z,94266.81
2019-05-09T12:17:58.480Z,94262.10
2019-05-09T12:20:22.549Z,94262.36
2019-05-09T12:22:52.126Z,94248.97
2019-05-09T12:25:21.655Z,94255.18
2019-05-09T12:27:51.223Z,94257.71
2019-05-09T12:30:22.355Z,94245.17
2019-05-09T12:32:51.897Z,94254.64
2019-05-09T12:35:21.385Z,94254.34
2019-05-09T12:37:55.139Z,94239.77
2019-05-09T12:40:24.624Z,94247.02
2019-05-09T12:42:54.715Z,94238.36
2019-05-09T12:45:24.293Z,94230.29
2019-05-09T12:48:06.302Z,94220.14
2019-05-09T12:50:26.063Z,94210.84
2019-05-09T12:52:57.495Z,94197.91
2019-05-09T12:55:27.606Z,94184.11
2019-05-09T12:57:59.487Z,94185.63
2019-05-09T13:00:29.256Z,94182.41
2019-05-09T13:02:59.467Z,94177.87
2019-05-09T13:05:30.092Z,94183.66
2019-05-09T13:07:59.960Z,94184.86
2019-05-09T13:10:29.691Z,94185.04
2019-05-09T13:12:59.522Z,94187.19
2019-05-09T13:15:38.429Z,94173.86
2019-05-09T13:18:21.385Z,94174.31
2019-05-09T13:20:39.163Z,94178.30
2019-05-09T13:23:08.948Z,94165.91
2019-05-09T13:25:38.618Z,94164.38
2019-05-09T13:28:08.417Z,94169.36
2019-05-09T13:30:38.107Z,94163.07
2019-05-09T13:33:10.793Z,94154.07
2019-05-09T13:35:39.563Z,94156.64
2019-05-09T13:38:10.107Z,94167.63
2019-05-09T13:40:39.622Z,94162.48
2019-05-09T13:43:09.128Z,94149.68
2019-05-09T13:45:40.664Z,94129.39
2019-05-09T13:48:26.444Z,94134.46
2019-05-09T13:50:44.803Z,94133.22
2019-05-09T13:53:14.419Z,94138.55
2019-05-09T13:55:43.897Z,94142.66
2019-05-09T13:58:15.471Z,94135.38
2019-05-09T14:00:56.707Z,94136.36
2019-05-09T14:03:18.074Z,94132.86
2019-05-09T14:05:48.476Z,94137.05
2019-05-09T14:08:19.266Z,94139.17
2019-05-09T14:10:54.901Z,94139.45
2019-05-09T14:13:24.347Z,94137.96
2019-05-09T14:15:54.277Z,94136.42
2019-05-09T14:18:24.574Z,94137.23
2019-05-09T14:20:54.073Z,94133.56
2019-05-09T14:23:24.046Z,94132.83
2019-05-09T14:25:53.559Z,94133.38
2019-05-09T14:28:23.919Z,94133.99
2019-05-09T14:30:53.411Z,94122.84
2019-05-09T14:33:24.950Z,94122.03
2019-05-09T14:35:54.444Z,94108.39
2019-05-09T14:38:28.408Z,94107.43
2019-05-09T14:41:02.241Z,94108.38
2019-05-09T14:43:31.749Z,94102.20
2019-05-09T14:46:01.287Z,94098.58
2019-05-09T14:48:32.739Z,94095.61
2019-05-09T14:51:02.270Z,94091.94
2019-05-09T14:53:32.177Z,94087.78
2019-05-09T14:56:01.719Z,94101.84
2019-05-09T14:58:31.235Z,94100.00
2019-05-09T15:01:01.029Z,94099.53
2019-05-09T15:03:30.582Z,94106.21
2019-05-09T15:06:00.126Z,94107.73
2019-05-09T15:08:29.604Z,94099.42
2019-05-09T15:10:59.455Z,94098.72
2019-05-09T15:13:28.918Z,94104.82
2019-05-09T15:15:58.448Z,94101.52
2019-05-09T15:18:28.304Z,94099.53
2019-05-09T15:20:58.775Z,94093.44
2019-05-09T15:23:29.324Z,94091.09
2019-05-09T15:26:00.036Z,94087.83
2019-05-09T15:28:29.909Z,94092.16
2019-05-09T15:30:59.751Z,94093.02
2019-05-09T15:33:31.668Z,94094.67
2019-05-09T15:36:02.279Z,94084.83
2019-05-09T15:38:32.078Z,94086.17
2019-05-09T15:41:04.427Z,94088.19
2019-05-09T15:43:34.446Z,94090.92
2019-05-09T15:46:18.694Z,94100.06
2019-05-09T15:48:48.287Z,94096.19
2019-05-09T15:51:19.737Z,94085.86
2019-05-09T15:53:49.567Z,94082.61
2019-05-09T15:56:19.023Z,94084.73
2019-05-09T15:58:49.148Z,94075.86
2019-05-09T16:01:19.638Z,94070.86
2019-05-09T16:03:49.430Z,94072.48
2019-05-09T16:06:20.627Z,94072.77
2019-05-09T16:08:52.570Z,94079.27
2019-05-09T16:11:24.666Z,94081.76
2019-05-09T16:13:54.582Z,94084.79
2019-05-09T16:16:24.265Z,94084.28
2019-05-09T16:18:54.160Z,94084.70
2019-05-09T16:21:27.614Z,94092.23
2019-05-09T16:23:59.232Z,94090.97
2019-05-09T16:26:29.187Z,94079.48
2019-05-09T16:28:58.878Z,94079.55
2019-05-09T16:31:35.095Z,94082.27
2019-05-09T16:34:04.583Z,94088.77
2019-05-09T16:36:34.081Z,94085.55
2019-05-09T16:39:07.443Z,94080.52
2019-05-09T16:41:39.197Z,94076.66
2019-05-09T16:44:09.555Z,94077.27
2019-05-09T16:46:39.134Z,94079.50
2019-05-09T16:49:11.774Z,94075.84
2019-05-09T16:51:42.511Z,94075.12
2019-05-09T16:54:12.404Z,94075.41
2019-05-09T16:56:43.102Z,94072.14
2019-05-09T16:59:12.581Z,94076.84
2019-05-09T17:01:47.661Z,94091.45
2019-05-09T17:04:19.204Z,94089.02
2019-05-09T17:07:08.405Z,94096.43
2019-05-09T17:10:17.736Z,94098.03
2019-05-09T17:12:47.844Z,94091.16
2019-05-09T17:15:20.715Z,94091.39
2019-05-09T17:17:52.575Z,94082.00
2019-05-09T17:20:29.289Z,94086.95
2019-05-09T17:23:15.013Z,94088.34
2019-05-09T17:25:43.585Z,94092.83
2019-05-09T17:28:13.098Z,94096.81
2019-05-09T17:30:49.022Z,94098.22
2019-05-09T17:33:22.413Z,94092.58
2019-05-09T17:35:53.552Z,94096.52
2019-05-09T17:38:23.322Z,94101.50
2019-05-09T17:40:53.865Z,94099.89
2019-05-09T17:43:27.793Z,94093.03
2019-05-09T17:45:58.409Z,94080.91
2019-05-09T17:48:28.863Z,94080.91
2019-05-09T17:51:05.308Z,94073.75
2019-05-09T17:53:35.137Z,94071.19
2019-05-09T17:56:04.974Z,94067.47
2019-05-09T17:58:37.833Z,94063.42
2019-05-09T18:01:09.933Z,94065.58
2019-05-09T18:03:40.415Z,94059.70
2019-05-09T18:06:09.949Z,94057.50
2019-05-09T18:08:40.730Z,94051.38
2019-05-09T18:11:17.452Z,94043.36
2019-05-09T18:13:48.113Z,94041.05
2019-05-09T18:16:19.027Z,94048.92
2019-05-09T18:18:50.248Z,94042.48
2019-05-09T18:21:24.444Z,94043.80
2019-05-09T18:23:55.529Z,94044.02
2019-05-09T18:26:27.502Z,94042.92
2019-05-09T18:29:09.276Z,94046.64
2019-05-09T18:31:52.275Z,94052.19
2019-05-09T18:34:24.836Z,94064.39
2019-05-09T18:36:58.763Z,94063.02
2019-05-09T18:39:27.928Z,94059.72
2019-05-09T18:41:57.839Z,94069.66
2019-05-09T18:44:35.090Z,94076.22
2019-05-09T18:47:07.804Z,94073.88
2019-05-09T18:49:37.984Z,94082.86
2019-05-09T18:52:07.473Z,94085.20
2019-05-09T18:54:41.231Z,94084.46
2019-05-09T18:57:10.822Z,94075.27
2019-05-09T18:59:40.330Z,94072.69
2019-05-09T19:02:12.378Z,94081.20
2019-05-09T19:04:46.335Z,94078.05
2019-05-09T19:07:22.299Z,94074.62
2019-05-09T19:09:49.404Z,94073.17
2019-05-09T19:12:20.920Z,94073.10
2019-05-09T19:14:54.249Z,94076.72
2019-05-09T19:17:41.630Z,94084.02
2019-05-09T19:20:32.932Z,94076.53
2019-05-09T19:23:07.700Z,94079.78
2019-05-09T19:25:37.167Z,94088.87
2019-05-09T19:28:07.006Z,94085.51
2019-05-09T19:30:36.502Z,94096.92
2019-05-09T19:33:06.654Z,94098.46
2019-05-09T19:35:37.444Z,94105.69
2019-05-09T19:38:09.031Z,94101.09
2019-05-09T19:40:42.871Z,94098.31
2019-05-09T19:43:15.180Z,94099.55
2019-05-09T19:45:45.100Z,94095.69
2019-05-09T19:48:14.589Z,94088.47
2019-05-09T19:50:44.830Z,94091.75
2019-05-09T19:53:15.457Z,94092.55
2019-05-09T19:55:47.934Z,94080.73
2019-05-09T19:58:20.537Z,94066.87
2019-05-09T20:00:51.820Z,94071.36
2019-05-09T20:03:24.165Z,94077.63
2019-05-09T20:06:03.056Z,94081.57
2019-05-09T20:08:34.392Z,94077.55
2019-05-09T20:11:25.961Z,94092.11
2019-05-09T20:14:30.569Z,94085.17
2019-05-09T20:17:02.266Z,94084.41
2019-05-09T20:19:32.191Z,94084.13
2019-05-09T20:22:03.734Z,94086.02
2019-05-09T20:24:55.146Z,94083.35
2019-05-09T20:27:28.347Z,94084.70
2019-05-09T20:29:59.748Z,94091.96
2019-05-09T20:32:32.348Z,94085.13
2019-05-09T20:35:02.230Z,94088.02
2019-05-09T20:37:33.639Z,94092.32
2019-05-09T20:40:05.374Z,94084.92
2019-05-09T20:42:35.094Z,94086.16
2019-05-09T20:45:05.445Z,94086.71
2019-05-09T20:47:43.954Z,94082.55
2019-05-09T20:50:16.691Z,94076.42
2019-05-09T20:52:51.022Z,94084.81
2019-05-09T20:55:23.964Z,94079.56
2019-05-09T20:57:56.035Z,94072.48
2019-05-09T21:00:26.374Z,94068.36
2019-05-09T21:02:56.075Z,94072.59
2019-05-09T21:05:26.099Z,94070.16
2019-05-09T21:07:55.869Z,94057.93
2019-05-09T21:10:25.535Z,94050.56
2019-05-09T21:12:55.547Z,94051.37
2019-05-09T21:15:26.113Z,94049.11
2019-05-09T21:18:01.410Z,94052.20
2019-05-09T21:20:31.078Z,94048.27
2019-05-09T21:23:00.807Z,94055.16
2019-05-09T21:25:33.247Z,94053.05
2019-05-09T21:28:06.331Z,94054.58
2019-05-09T21:30:35.979Z,94058.44
2019-05-09T21:33:07.874Z,94053.48
2019-05-09T21:35:38.617Z,94047.94
2019-05-09T21:38:10.522Z,94043.27
2019-05-09T21:40:42.079Z,94048.67
2019-05-09T21:43:11.603Z,94045.83
2019-05-09T21:45:41.139Z,94057.27
2019-05-09T21:48:11.063Z,94054.46
2019-05-09T21:50:40.865Z,94055.84
2019-05-09T21:53:10.372Z,94054.09
2019-05-09T21:55:41.140Z,94054.19
2019-05-09T21:58:14.057Z,94062.44
2019-05-09T22:00:46.458Z,94066.66
2019-05-09T22:03:16.031Z,94071.52
2019-05-09T22:05:51.626Z,94067.08
2019-05-09T22:08:22.863Z,94073.83
2019-05-09T22:10:52.629Z,94078.86
2019-05-09T22:13:22.111Z,94078.45
2019-05-09T22:15:51.636Z,94073.66
2019-05-09T22:18:21.105Z,94069.72
2019-05-09T22:20:51.140Z,94067.53
2019-05-09T22:23:20.597Z,94058.66
2019-05-09T22:25:50.992Z,94058.37
2019-05-09T22:28:20.533Z,94060.48
2019-05-09T22:30:50.095Z,94049.77
2019-05-09T22:33:20.053Z,94055.67
2019-05-09T22:35:49.552Z,94045.25
2019-05-09T22:38:19.016Z,94043.30
2019-05-09T22:40:48.487Z,94030.11
2019-05-09T22:43:17.984Z,94025.16
2019-05-09T22:45:47.450Z,94025.59
2019-05-09T22:48:16.919Z,94024.50
2019-05-09T22:50:46.385Z,94026.91
2019-05-09T22:53:15.836Z,94031.86
2019-05-09T22:55:45.396Z,94029.11
2019-05-09T22:58:14.891Z,94032.39
2019-05-09T23:00:44.456Z,94025.00
2019-05-09T23:03:14.403Z,94032.44
2019-05-09T23:05:43.891Z,94026.25
2019-05-09T23:08:13.522Z,94013.08
2019-05-09T23:10:42.989Z,94015.69
2019-05-09T23:13:12.463Z,94019.03
2019-05-09T23:15:41.947Z,94022.38
2019-05-09T23:18:11.426Z,94027.14
2019-05-09T23:20:52.729Z,94020.95
2019-05-09T23:23:29.917Z,94018.37
2019-05-09T23:25:59.483Z,94024.86
2019-05-09T23:28:29.017Z,94022.14
2019-05-09T23:31:00.774Z,94014.93
2019-05-09T23:33:33.303Z,94027.58
2019-05-09T23:36:02.772Z,94024.77
2019-05-09T23:38:32.258Z,94009.61
2019-05-09T23:41:01.716Z,94005.19
2019-05-09T23:43:31.183Z,94012.47
2019-05-09T23:46:00.706Z,93999.62
2019-05-09T23:48:30.173Z,93999.33
2019-05-09T23:50:59.622Z,93998.92
2019-05-09T23:53:35.853Z,93996.44
2019-05-09T23:56:22.961Z,93994.30
2019-05-09T23:59:10.130Z,93989.78
